sensor_id;sensor_type;location;lat;lon;timestamp;noise_LAeq;noise_LA_min;noise_LA_max;noise_LA01;noise_LA95
72736;Laerm;60856;53.238;10.448;2023-05-10T00:00:49;46.60;44.73;49.63;;
72736;Laerm;60856;53.238;10.448;2023-05-10T00:03:15;46.60;45.22;49.69;;
72736;Laerm;60856;53.238;10.448;2023-05-10T00:05:41;46.62;45.25;49.61;;
72736;Laerm;60856;53.238;10.448;2023-05-10T00:08:06;46.60;45.28;49.63;;
72736;Laerm;60856;53.238;10.448;2023-05-10T00:10:31;46.59;45.33;49.08;;
72736;Laerm;60856;53.238;10.448;2023-05-10T00:12:56;46.58;45.36;49.70;;
72736;Laerm;60856;53.238;10.448;2023-05-10T00:15:22;46.59;45.32;49.47;;
72736;Laerm;60856;53.238;10.448;2023-05-10T00:17:47;46.61;45.37;50.25;;
72736;Laerm;60856;53.238;10.448;2023-05-10T00:20:12;46.61;45.31;50.05;;
72736;Laerm;60856;53.238;10.448;2023-05-10T00:22:37;46.59;45.22;50.23;;
72736;Laerm;60856;53.238;10.448;2023-05-10T00:25:03;46.59;45.20;49.76;;
72736;Laerm;60856;53.238;10.448;2023-05-10T00:27:28;46.59;45.24;49.56;;
72736;Laerm;60856;53.238;10.448;2023-05-10T00:29:53;46.58;45.19;49.75;;
72736;Laerm;60856;53.238;10.448;2023-05-10T00:32:19;46.60;45.34;49.60;;
72736;Laerm;60856;53.238;10.448;2023-05-10T00:34:44;46.59;45.15;49.29;;
72736;Laerm;60856;53.238;10.448;2023-05-10T00:37:09;46.60;45.20;49.52;;
72736;Laerm;60856;53.238;10.448;2023-05-10T00:39:34;46.58;45.32;49.40;;
72736;Laerm;60856;53.238;10.448;2023-05-10T00:42:00;46.59;45.36;49.58;;
72736;Laerm;60856;53.238;10.448;2023-05-10T00:44:25;46.57;45.34;49.66;;
72736;Laerm;60856;53.238;10.448;2023-05-10T00:46:50;46.57;45.24;49.66;;
72736;Laerm;60856;53.238;10.448;2023-05-10T00:49:15;46.57;45.29;49.72;;
72736;Laerm;60856;53.238;10.448;2023-05-10T00:51:41;46.55;45.31;49.69;;
72736;Laerm;60856;53.238;10.448;2023-05-10T00:54:08;46.58;45.32;49.89;;
72736;Laerm;60856;53.238;10.448;2023-05-10T00:56:34;46.56;45.21;49.74;;
72736;Laerm;60856;53.238;10.448;2023-05-10T00:58:59;46.56;45.16;49.82;;
72736;Laerm;60856;53.238;10.448;2023-05-10T01:01:24;46.54;44.96;50.41;;
72736;Laerm;60856;53.238;10.448;2023-05-10T01:03:50;46.54;45.10;49.79;;
72736;Laerm;60856;53.238;10.448;2023-05-10T01:06:15;46.54;45.15;49.79;;
72736;Laerm;60856;53.238;10.448;2023-05-10T01:08:40;46.52;45.17;49.49;;
72736;Laerm;60856;53.238;10.448;2023-05-10T01:11:05;46.55;45.18;50.40;;
72736;Laerm;60856;53.238;10.448;2023-05-10T01:13:35;46.56;45.24;50.07;;
72736;Laerm;60856;53.238;10.448;2023-05-10T01:16:01;46.57;45.18;49.72;;
72736;Laerm;60856;53.238;10.448;2023-05-10T01:18:28;46.58;45.40;50.10;;
72736;Laerm;60856;53.238;10.448;2023-05-10T01:21:00;46.57;45.17;50.02;;
72736;Laerm;60856;53.238;10.448;2023-05-10T01:34:17;46.57;45.38;49.87;;
72736;Laerm;60856;53.238;10.448;2023-05-10T01:36:55;46.55;45.36;50.46;;
72736;Laerm;60856;53.238;10.448;2023-05-10T01:39:32;46.55;45.22;50.03;;
72736;Laerm;60856;53.238;10.448;2023-05-10T01:42:08;46.57;45.30;50.06;;
72736;Laerm;60856;53.238;10.448;2023-05-10T01:44:40;46.56;45.17;50.14;;
72736;Laerm;60856;53.238;10.448;2023-05-10T01:47:11;46.56;45.32;49.48;;
72736;Laerm;60856;53.238;10.448;2023-05-10T01:49:45;46.56;45.26;49.44;;
72736;Laerm;60856;53.238;10.448;2023-05-10T01:55:15;46.57;45.19;49.91;;
72736;Laerm;60856;53.238;10.448;2023-05-10T01:57:42;46.56;45.35;49.52;;
72736;Laerm;60856;53.238;10.448;2023-05-10T02:00:08;46.56;45.18;50.24;;
72736;Laerm;60856;53.238;10.448;2023-05-10T02:02:37;46.56;45.33;49.97;;
72736;Laerm;60856;53.238;10.448;2023-05-10T02:08:07;46.55;45.27;49.59;;
72736;Laerm;60856;53.238;10.448;2023-05-10T02:10:36;46.57;45.33;49.80;;
72736;Laerm;60856;53.238;10.448;2023-05-10T02:13:02;46.57;44.99;49.48;;
72736;Laerm;60856;53.238;10.448;2023-05-10T02:15:28;46.57;45.26;49.82;;
72736;Laerm;60856;53.238;10.448;2023-05-10T02:17:54;46.56;45.20;49.99;;
72736;Laerm;60856;53.238;10.448;2023-05-10T02:20:20;46.56;45.25;49.49;;
72736;Laerm;60856;53.238;10.448;2023-05-10T02:22:47;46.57;45.16;50.27;;
72736;Laerm;60856;53.238;10.448;2023-05-10T02:25:13;46.56;45.16;49.61;;
72736;Laerm;60856;53.238;10.448;2023-05-10T02:27:39;46.56;45.26;50.50;;
72736;Laerm;60856;53.238;10.448;2023-05-10T02:30:08;46.56;45.29;50.26;;
72736;Laerm;60856;53.238;10.448;2023-05-10T02:32:37;46.58;45.18;49.68;;
72736;Laerm;60856;53.238;10.448;2023-05-10T02:35:07;46.57;45.26;49.97;;
72736;Laerm;60856;53.238;10.448;2023-05-10T02:37:33;46.55;45.12;49.75;;
72736;Laerm;60856;53.238;10.448;2023-05-10T02:39:59;46.56;45.33;49.78;;
72736;Laerm;60856;53.238;10.448;2023-05-10T02:45:31;46.54;45.19;49.72;;
72736;Laerm;60856;53.238;10.448;2023-05-10T02:47:57;46.56;45.22;49.81;;
72736;Laerm;60856;53.238;10.448;2023-05-10T02:50:23;46.56;45.24;50.33;;
72736;Laerm;60856;53.238;10.448;2023-05-10T02:52:51;46.56;45.20;49.70;;
72736;Laerm;60856;53.238;10.448;2023-05-10T02:55:20;46.56;45.27;49.76;;
72736;Laerm;60856;53.238;10.448;2023-05-10T02:57:48;46.56;45.31;49.68;;
72736;Laerm;60856;53.238;10.448;2023-05-10T03:00:15;46.57;45.04;49.94;;
72736;Laerm;60856;53.238;10.448;2023-05-10T03:02:41;46.57;45.08;49.73;;
72736;Laerm;60856;53.238;10.448;2023-05-10T03:05:06;46.57;45.33;49.65;;
72736;Laerm;60856;53.238;10.448;2023-05-10T03:07:32;46.57;45.23;49.58;;
72736;Laerm;60856;53.238;10.448;2023-05-10T03:09:58;46.56;45.24;49.81;;
72736;Laerm;60856;53.238;10.448;2023-05-10T03:12:27;46.56;45.06;49.82;;
72736;Laerm;60856;53.238;10.448;2023-05-10T03:17:45;46.57;45.12;49.82;;
72736;Laerm;60856;53.238;10.448;2023-05-10T03:20:14;46.58;45.15;49.59;;
72736;Laerm;60856;53.238;10.448;2023-05-10T03:22:44;46.56;45.18;49.55;;
72736;Laerm;60856;53.238;10.448;2023-05-10T03:25:10;46.55;45.12;50.10;;
72736;Laerm;60856;53.238;10.448;2023-05-10T03:27:38;46.57;45.42;49.70;;
72736;Laerm;60856;53.238;10.448;2023-05-10T03:30:04;46.57;45.37;49.65;;
72736;Laerm;60856;53.238;10.448;2023-05-10T03:32:30;46.55;45.18;49.46;;
72736;Laerm;60856;53.238;10.448;2023-05-10T03:34:57;46.57;45.27;49.80;;
72736;Laerm;60856;53.238;10.448;2023-05-10T03:37:22;46.58;45.19;49.71;;
72736;Laerm;60856;53.238;10.448;2023-05-10T03:39:48;46.57;45.35;50.06;;
72736;Laerm;60856;53.238;10.448;2023-05-10T03:42:13;46.56;45.29;49.69;;
72736;Laerm;60856;53.238;10.448;2023-05-10T03:44:39;46.57;45.31;49.78;;
72736;Laerm;60856;53.238;10.448;2023-05-10T03:47:04;46.57;45.22;49.95;;
72736;Laerm;60856;53.238;10.448;2023-05-10T03:49:29;46.59;45.31;49.92;;
72736;Laerm;60856;53.238;10.448;2023-05-10T03:51:54;46.58;45.30;49.67;;
72736;Laerm;60856;53.238;10.448;2023-05-10T03:54:20;46.58;45.28;49.54;;
72736;Laerm;60856;53.238;10.448;2023-05-10T03:56:45;46.60;45.31;49.80;;
72736;Laerm;60856;53.238;10.448;2023-05-10T03:59:12;46.57;45.23;49.24;;
72736;Laerm;60856;53.238;10.448;2023-05-10T04:01:38;46.58;45.14;50.37;;
72736;Laerm;60856;53.238;10.448;2023-05-10T04:04:03;46.59;45.36;50.43;;
72736;Laerm;60856;53.238;10.448;2023-05-10T04:06:28;46.60;45.18;50.43;;
72736;Laerm;60856;53.238;10.448;2023-05-10T04:08:53;46.65;45.40;49.78;;
72736;Laerm;60856;53.238;10.448;2023-05-10T04:11:20;46.68;45.33;50.43;;
72736;Laerm;60856;53.238;10.448;2023-05-10T04:13:46;46.65;45.35;49.62;;
72736;Laerm;60856;53.238;10.448;2023-05-10T04:16:12;46.63;45.38;49.82;;
72736;Laerm;60856;53.238;10.448;2023-05-10T04:18:37;46.62;45.39;49.79;;
72736;Laerm;60856;53.238;10.448;2023-05-10T04:21:02;46.62;45.22;49.96;;
72736;Laerm;60856;53.238;10.448;2023-05-10T04:23:28;46.64;45.14;49.94;;
72736;Laerm;60856;53.238;10.448;2023-05-10T04:25:59;46.66;45.25;49.78;;
72736;Laerm;60856;53.238;10.448;2023-05-10T04:28:24;46.66;45.34;49.86;;
72736;Laerm;60856;53.238;10.448;2023-05-10T04:30:50;46.64;45.23;50.00;;
72736;Laerm;60856;53.238;10.448;2023-05-10T04:33:15;46.62;45.40;50.02;;
72736;Laerm;60856;53.238;10.448;2023-05-10T04:35:40;46.60;45.26;50.81;;
72736;Laerm;60856;53.238;10.448;2023-05-10T04:38:05;46.64;45.24;50.46;;
72736;Laerm;60856;53.238;10.448;2023-05-10T04:40:31;46.63;45.24;49.95;;
72736;Laerm;60856;53.238;10.448;2023-05-10T04:42:56;46.63;44.82;49.48;;
72736;Laerm;60856;53.238;10.448;2023-05-10T04:45:21;46.62;45.18;50.14;;
72736;Laerm;60856;53.238;10.448;2023-05-10T04:47:47;46.60;45.28;49.58;;
72736;Laerm;60856;53.238;10.448;2023-05-10T04:50:12;46.62;45.33;49.75;;
72736;Laerm;60856;53.238;10.448;2023-05-10T04:52:37;46.65;45.30;50.40;;
72736;Laerm;60856;53.238;10.448;2023-05-10T04:55:02;46.71;45.51;50.46;;
72736;Laerm;60856;53.238;10.448;2023-05-10T04:57:28;46.84;45.49;49.83;;
72736;Laerm;60856;53.238;10.448;2023-05-10T04:59:53;49.91;45.90;58.60;;
72736;Laerm;60856;53.238;10.448;2023-05-10T05:02:18;46.81;45.51;49.81;;
72736;Laerm;60856;53.238;10.448;2023-05-10T05:04:43;46.64;44.88;49.89;;
72736;Laerm;60856;53.238;10.448;2023-05-10T05:07:09;46.69;45.29;49.63;;
72736;Laerm;60856;53.238;10.448;2023-05-10T05:09:34;47.34;45.80;50.54;;
72736;Laerm;60856;53.238;10.448;2023-05-10T05:11:59;48.49;46.83;51.31;;
72736;Laerm;60856;53.238;10.448;2023-05-10T05:14:25;49.93;48.39;51.93;;
72736;Laerm;60856;53.238;10.448;2023-05-10T05:16:50;49.96;48.75;53.06;;
72736;Laerm;60856;53.238;10.448;2023-05-10T05:19:16;49.27;47.54;62.81;;
72736;Laerm;60856;53.238;10.448;2023-05-10T05:21:41;51.03;49.37;53.18;;
72736;Laerm;60856;53.238;10.448;2023-05-10T05:24:06;49.81;46.55;52.74;;
72736;Laerm;60856;53.238;10.448;2023-05-10T05:26:32;47.97;46.36;51.01;;
72736;Laerm;60856;53.238;10.448;2023-05-10T05:28:57;50.65;48.45;52.92;;
72736;Laerm;60856;53.238;10.448;2023-05-10T05:31:22;50.54;47.05;52.93;;
72736;Laerm;60856;53.238;10.448;2023-05-10T05:33:47;47.16;45.74;50.48;;
72736;Laerm;60856;53.238;10.448;2023-05-10T05:36:13;46.75;45.35;50.39;;
72736;Laerm;60856;53.238;10.448;2023-05-10T05:38:38;46.74;45.44;50.29;;
72736;Laerm;60856;53.238;10.448;2023-05-10T05:41:03;46.75;45.39;49.45;;
72736;Laerm;60856;53.238;10.448;2023-05-10T05:43:28;46.88;45.56;50.17;;
72736;Laerm;60856;53.238;10.448;2023-05-10T05:45:54;47.06;45.52;50.35;;
72736;Laerm;60856;53.238;10.448;2023-05-10T05:48:19;47.14;45.60;49.83;;
72736;Laerm;60856;53.238;10.448;2023-05-10T05:50:45;47.88;46.39;50.51;;
72736;Laerm;60856;53.238;10.448;2023-05-10T05:53:10;48.87;46.59;51.62;;
72736;Laerm;60856;53.238;10.448;2023-05-10T05:55:36;47.74;45.96;50.58;;
72736;Laerm;60856;53.238;10.448;2023-05-10T05:58:01;48.48;46.51;50.99;;
72736;Laerm;60856;53.238;10.448;2023-05-10T06:00:26;47.87;45.99;50.74;;
72736;Laerm;60856;53.238;10.448;2023-05-10T06:02:51;46.92;45.43;49.94;;
72736;Laerm;60856;53.238;10.448;2023-05-10T06:05:17;46.98;45.49;49.90;;
72736;Laerm;60856;53.238;10.448;2023-05-10T06:07:42;46.77;45.41;49.90;;
72736;Laerm;60856;53.238;10.448;2023-05-10T06:10:08;46.75;45.47;50.14;;
72736;Laerm;60856;53.238;10.448;2023-05-10T06:12:33;46.72;45.28;50.28;;
72736;Laerm;60856;53.238;10.448;2023-05-10T06:14:58;46.66;45.34;50.33;;
72736;Laerm;60856;53.238;10.448;2023-05-10T06:17:23;46.71;45.29;50.05;;
72736;Laerm;60856;53.238;10.448;2023-05-10T06:19:49;47.12;45.63;50.97;;
72736;Laerm;60856;53.238;10.448;2023-05-10T06:22:14;47.48;45.60;50.85;;
72736;Laerm;60856;53.238;10.448;2023-05-10T06:24:40;48.92;46.59;51.41;;
72736;Laerm;60856;53.238;10.448;2023-05-10T06:27:05;49.07;47.47;51.58;;
72736;Laerm;60856;53.238;10.448;2023-05-10T06:29:31;48.82;47.27;51.53;;
72736;Laerm;60856;53.238;10.448;2023-05-10T06:31:56;48.44;45.36;52.19;;
72736;Laerm;60856;53.238;10.448;2023-05-10T06:34:21;46.69;45.24;50.02;;
72736;Laerm;60856;53.238;10.448;2023-05-10T06:36:46;46.82;45.32;50.08;;
72736;Laerm;60856;53.238;10.448;2023-05-10T06:39:12;46.68;45.16;49.98;;
72736;Laerm;60856;53.238;10.448;2023-05-10T06:41:37;46.62;44.76;49.86;;
72736;Laerm;60856;53.238;10.448;2023-05-10T06:44:02;46.63;45.22;49.73;;
72736;Laerm;60856;53.238;10.448;2023-05-10T06:46:28;46.63;45.36;50.44;;
72736;Laerm;60856;53.238;10.448;2023-05-10T06:48:53;46.63;45.28;50.01;;
72736;Laerm;60856;53.238;10.448;2023-05-10T06:51:19;46.61;45.29;50.11;;
72736;Laerm;60856;53.238;10.448;2023-05-10T06:53:46;46.62;44.97;49.98;;
72736;Laerm;60856;53.238;10.448;2023-05-10T06:56:11;46.62;45.05;50.15;;
72736;Laerm;60856;53.238;10.448;2023-05-10T06:58:36;46.65;45.19;49.91;;
72736;Laerm;60856;53.238;10.448;2023-05-10T07:01:02;46.64;45.16;49.55;;
72736;Laerm;60856;53.238;10.448;2023-05-10T07:03:27;46.76;45.36;50.61;;
72736;Laerm;60856;53.238;10.448;2023-05-10T07:05:53;46.68;45.33;50.06;;
72736;Laerm;60856;53.238;10.448;2023-05-10T07:08:18;46.65;45.22;49.31;;
72736;Laerm;60856;53.238;10.448;2023-05-10T07:10:43;46.64;45.31;49.60;;
72736;Laerm;60856;53.238;10.448;2023-05-10T07:13:08;46.66;45.03;49.70;;
72736;Laerm;60856;53.238;10.448;2023-05-10T07:15:35;46.80;45.30;49.90;;
72736;Laerm;60856;53.238;10.448;2023-05-10T07:18:00;46.84;45.40;50.20;;
72736;Laerm;60856;53.238;10.448;2023-05-10T07:20:26;46.70;45.35;50.78;;
72736;Laerm;60856;53.238;10.448;2023-05-10T07:22:51;46.65;45.38;49.83;;
72736;Laerm;60856;53.238;10.448;2023-05-10T07:25:16;46.81;45.42;49.81;;
72736;Laerm;60856;53.238;10.448;2023-05-10T07:27:41;46.76;45.29;50.17;;
72736;Laerm;60856;53.238;10.448;2023-05-10T07:30:07;46.88;45.14;50.31;;
72736;Laerm;60856;53.238;10.448;2023-05-10T07:32:32;46.79;45.29;50.08;;
72736;Laerm;60856;53.238;10.448;2023-05-10T07:34:58;46.66;45.31;50.16;;
72736;Laerm;60856;53.238;10.448;2023-05-10T07:37:23;46.67;45.27;49.86;;
72736;Laerm;60856;53.238;10.448;2023-05-10T07:39:48;46.64;45.21;49.90;;
72736;Laerm;60856;53.238;10.448;2023-05-10T07:42:13;46.65;45.26;49.89;;
72736;Laerm;60856;53.238;10.448;2023-05-10T07:44:39;46.64;45.28;50.32;;
72736;Laerm;60856;53.238;10.448;2023-05-10T07:47:04;46.62;45.32;50.53;;
72736;Laerm;60856;53.238;10.448;2023-05-10T07:49:29;46.63;45.18;50.39;;
72736;Laerm;60856;53.238;10.448;2023-05-10T07:51:54;46.64;45.31;50.31;;
72736;Laerm;60856;53.238;10.448;2023-05-10T07:54:20;46.64;45.17;49.96;;
72736;Laerm;60856;53.238;10.448;2023-05-10T07:56:45;46.63;45.23;50.16;;
72736;Laerm;60856;53.238;10.448;2023-05-10T07:59:14;46.62;45.30;49.54;;
72736;Laerm;60856;53.238;10.448;2023-05-10T08:01:40;46.63;45.15;49.94;;
72736;Laerm;60856;53.238;10.448;2023-05-10T08:04:05;46.66;45.29;50.18;;
72736;Laerm;60856;53.238;10.448;2023-05-10T08:06:30;46.65;45.01;49.82;;
72736;Laerm;60856;53.238;10.448;2023-05-10T08:08:55;46.64;45.34;49.64;;
72736;Laerm;60856;53.238;10.448;2023-05-10T08:11:21;46.64;45.44;49.79;;
72736;Laerm;60856;53.238;10.448;2023-05-10T08:13:47;46.66;45.25;50.11;;
72736;Laerm;60856;53.238;10.448;2023-05-10T08:16:12;46.63;45.16;50.17;;
72736;Laerm;60856;53.238;10.448;2023-05-10T08:18:38;46.65;45.35;49.94;;
72736;Laerm;60856;53.238;10.448;2023-05-10T08:21:03;46.66;45.18;50.10;;
72736;Laerm;60856;53.238;10.448;2023-05-10T08:23:29;46.64;45.31;49.62;;
72736;Laerm;60856;53.238;10.448;2023-05-10T08:25:54;46.68;45.38;50.07;;
72736;Laerm;60856;53.238;10.448;2023-05-10T08:28:19;46.70;45.26;49.67;;
72736;Laerm;60856;53.238;10.448;2023-05-10T08:30:44;46.65;45.37;49.60;;
72736;Laerm;60856;53.238;10.448;2023-05-10T08:33:10;46.63;45.20;49.91;;
72736;Laerm;60856;53.238;10.448;2023-05-10T08:35:35;46.63;45.25;49.88;;
72736;Laerm;60856;53.238;10.448;2023-05-10T08:38:00;46.63;45.28;50.26;;
72736;Laerm;60856;53.238;10.448;2023-05-10T08:40:26;46.62;45.33;50.55;;
72736;Laerm;60856;53.238;10.448;2023-05-10T08:42:54;46.62;45.30;50.36;;
72736;Laerm;60856;53.238;10.448;2023-05-10T08:45:21;46.60;45.24;49.52;;
72736;Laerm;60856;53.238;10.448;2023-05-10T08:47:48;46.61;45.19;49.92;;
72736;Laerm;60856;53.238;10.448;2023-05-10T08:50:13;46.61;45.24;50.10;;
72736;Laerm;60856;53.238;10.448;2023-05-10T08:52:40;46.61;45.07;49.61;;
72736;Laerm;60856;53.238;10.448;2023-05-10T08:55:05;46.62;45.37;49.97;;
72736;Laerm;60856;53.238;10.448;2023-05-10T08:57:31;46.59;45.35;49.96;;
72736;Laerm;60856;53.238;10.448;2023-05-10T08:59:56;46.60;45.24;50.35;;
72736;Laerm;60856;53.238;10.448;2023-05-10T09:02:22;46.63;45.27;50.19;;
72736;Laerm;60856;53.238;10.448;2023-05-10T09:04:48;46.61;45.24;49.74;;
72736;Laerm;60856;53.238;10.448;2023-05-10T09:07:13;46.62;45.19;49.56;;
72736;Laerm;60856;53.238;10.448;2023-05-10T09:09:39;46.63;45.29;50.20;;
72736;Laerm;60856;53.238;10.448;2023-05-10T09:12:04;46.60;45.32;49.77;;
72736;Laerm;60856;53.238;10.448;2023-05-10T09:14:30;46.59;45.06;49.75;;
72736;Laerm;60856;53.238;10.448;2023-05-10T09:16:55;46.60;45.24;49.87;;
72736;Laerm;60856;53.238;10.448;2023-05-10T09:19:21;46.59;45.14;50.26;;
72736;Laerm;60856;53.238;10.448;2023-05-10T09:21:46;46.59;45.21;50.25;;
72736;Laerm;60856;53.238;10.448;2023-05-10T09:24:11;46.60;45.22;49.85;;
72736;Laerm;60856;53.238;10.448;2023-05-10T09:26:43;46.60;45.29;50.08;;
72736;Laerm;60856;53.238;10.448;2023-05-10T09:29:11;46.62;45.17;50.09;;
72736;Laerm;60856;53.238;10.448;2023-05-10T09:31:43;46.61;45.32;49.62;;
72736;Laerm;60856;53.238;10.448;2023-05-10T09:34:10;46.63;45.37;49.62;;
72736;Laerm;60856;53.238;10.448;2023-05-10T09:36:35;46.59;45.17;49.32;;
72736;Laerm;60856;53.238;10.448;2023-05-10T09:39:00;46.62;45.38;49.63;;
72736;Laerm;60856;53.238;10.448;2023-05-10T09:41:25;46.62;45.36;50.38;;
72736;Laerm;60856;53.238;10.448;2023-05-10T09:43:55;46.60;45.29;49.66;;
72736;Laerm;60856;53.238;10.448;2023-05-10T09:46:20;46.61;45.20;50.46;;
72736;Laerm;60856;53.238;10.448;2023-05-10T09:48:46;46.59;45.03;49.75;;
72736;Laerm;60856;53.238;10.448;2023-05-10T09:51:19;46.60;45.34;49.65;;
72736;Laerm;60856;53.238;10.448;2023-05-10T09:53:45;46.58;45.13;49.78;;
72736;Laerm;60856;53.238;10.448;2023-05-10T09:56:10;46.62;45.27;50.01;;
72736;Laerm;60856;53.238;10.448;2023-05-10T09:58:36;46.59;45.27;49.50;;
72736;Laerm;60856;53.238;10.448;2023-05-10T10:01:03;46.60;45.26;49.86;;
72736;Laerm;60856;53.238;10.448;2023-05-10T10:03:28;46.61;45.18;50.91;;
72736;Laerm;60856;53.238;10.448;2023-05-10T10:05:54;46.58;45.18;50.76;;
72736;Laerm;60856;53.238;10.448;2023-05-10T10:08:20;46.60;45.31;49.97;;
72736;Laerm;60856;53.238;10.448;2023-05-10T10:10:46;46.59;45.35;49.50;;
72736;Laerm;60856;53.238;10.448;2023-05-10T10:13:11;46.61;45.21;49.90;;
72736;Laerm;60856;53.238;10.448;2023-05-10T10:15:37;46.60;45.04;49.76;;
72736;Laerm;60856;53.238;10.448;2023-05-10T10:18:02;46.61;45.31;49.76;;
72736;Laerm;60856;53.238;10.448;2023-05-10T10:20:29;46.60;45.32;50.03;;
72736;Laerm;60856;53.238;10.448;2023-05-10T10:22:54;46.60;45.02;49.89;;
72736;Laerm;60856;53.238;10.448;2023-05-10T10:25:20;46.58;45.18;49.48;;
72736;Laerm;60856;53.238;10.448;2023-05-10T10:35:28;46.58;45.23;49.77;;
72736;Laerm;60856;53.238;10.448;2023-05-10T10:37:54;46.58;45.29;49.66;;
72736;Laerm;60856;53.238;10.448;2023-05-10T10:40:26;46.57;45.26;50.23;;
72736;Laerm;60856;53.238;10.448;2023-05-10T10:42:52;46.61;45.28;49.67;;
72736;Laerm;60856;53.238;10.448;2023-05-10T10:45:18;46.57;45.12;50.18;;
72736;Laerm;60856;53.238;10.448;2023-05-10T10:47:44;46.58;45.34;49.67;;
72736;Laerm;60856;53.238;10.448;2023-05-10T10:50:10;46.58;45.10;50.08;;
72736;Laerm;60856;53.238;10.448;2023-05-10T10:52:38;46.57;45.04;49.73;;
72736;Laerm;60856;53.238;10.448;2023-05-10T11:00:18;46.59;45.32;49.82;;
72736;Laerm;60856;53.238;10.448;2023-05-10T11:02:44;46.59;45.20;49.68;;
72736;Laerm;60856;53.238;10.448;2023-05-10T11:07:51;46.58;45.35;49.70;;
72736;Laerm;60856;53.238;10.448;2023-05-10T11:10:19;46.58;45.15;50.28;;
72736;Laerm;60856;53.238;10.448;2023-05-10T11:12:58;46.59;45.41;49.76;;
72736;Laerm;60856;53.238;10.448;2023-05-10T11:15:32;46.60;45.34;50.24;;
72736;Laerm;60856;53.238;10.448;2023-05-10T11:17:58;46.57;45.34;49.41;;
72736;Laerm;60856;53.238;10.448;2023-05-10T11:20:24;46.58;45.24;49.58;;
72736;Laerm;60856;53.238;10.448;2023-05-10T11:22:57;46.59;45.12;49.68;;
72736;Laerm;60856;53.238;10.448;2023-05-10T11:25:26;46.61;45.21;49.69;;
72736;Laerm;60856;53.238;10.448;2023-05-10T11:27:51;46.59;45.39;49.73;;
72736;Laerm;60856;53.238;10.448;2023-05-10T11:30:17;46.60;45.19;50.52;;
72736;Laerm;60856;53.238;10.448;2023-05-10T11:32:42;46.61;45.27;50.66;;
72736;Laerm;60856;53.238;10.448;2023-05-10T11:35:08;46.59;45.03;49.66;;
72736;Laerm;60856;53.238;10.448;2023-05-10T11:37:34;46.60;45.12;49.92;;
72736;Laerm;60856;53.238;10.448;2023-05-10T11:39:59;46.58;45.10;49.78;;
72736;Laerm;60856;53.238;10.448;2023-05-10T11:42:25;46.59;45.16;50.08;;
72736;Laerm;60856;53.238;10.448;2023-05-10T11:44:50;46.60;45.03;50.12;;
72736;Laerm;60856;53.238;10.448;2023-05-10T11:47:15;46.62;45.16;50.60;;
72736;Laerm;60856;53.238;10.448;2023-05-10T11:49:44;46.59;45.27;49.88;;
72736;Laerm;60856;53.238;10.448;2023-05-10T11:52:09;46.60;45.27;49.76;;
72736;Laerm;60856;53.238;10.448;2023-05-10T11:54:36;46.59;45.36;50.23;;
72736;Laerm;60856;53.238;10.448;2023-05-10T11:57:01;46.60;45.26;50.11;;
72736;Laerm;60856;53.238;10.448;2023-05-10T11:59:26;46.61;45.43;49.87;;
72736;Laerm;60856;53.238;10.448;2023-05-10T12:01:52;46.62;45.23;49.96;;
72736;Laerm;60856;53.238;10.448;2023-05-10T12:04:17;46.59;45.32;49.60;;
72736;Laerm;60856;53.238;10.448;2023-05-10T12:06:42;46.62;45.19;50.58;;
72736;Laerm;60856;53.238;10.448;2023-05-10T12:09:08;46.59;45.33;49.69;;
72736;Laerm;60856;53.238;10.448;2023-05-10T12:11:36;46.61;45.12;49.88;;
72736;Laerm;60856;53.238;10.448;2023-05-10T12:14:03;46.61;45.16;49.97;;
72736;Laerm;60856;53.238;10.448;2023-05-10T12:16:29;46.61;45.21;49.79;;
72736;Laerm;60856;53.238;10.448;2023-05-10T12:18:58;46.61;45.26;49.59;;
72736;Laerm;60856;53.238;10.448;2023-05-10T12:21:24;46.64;45.27;50.10;;
72736;Laerm;60856;53.238;10.448;2023-05-10T12:23:50;46.61;45.24;49.48;;
72736;Laerm;60856;53.238;10.448;2023-05-10T12:26:15;46.60;45.14;49.79;;
72736;Laerm;60856;53.238;10.448;2023-05-10T12:28:41;46.59;45.15;49.63;;
72736;Laerm;60856;53.238;10.448;2023-05-10T12:31:06;46.62;44.94;49.81;;
72736;Laerm;60856;53.238;10.448;2023-05-10T12:33:35;46.63;44.85;49.83;;
72736;Laerm;60856;53.238;10.448;2023-05-10T12:36:01;46.62;45.43;49.90;;
72736;Laerm;60856;53.238;10.448;2023-05-10T12:41:02;46.59;45.18;50.18;;
72736;Laerm;60856;53.238;10.448;2023-05-10T12:43:28;46.57;45.34;49.28;;
72736;Laerm;60856;53.238;10.448;2023-05-10T12:45:53;46.61;45.34;50.06;;
72736;Laerm;60856;53.238;10.448;2023-05-10T12:48:18;46.60;45.21;50.06;;
72736;Laerm;60856;53.238;10.448;2023-05-10T12:50:44;46.61;45.08;51.05;;
72736;Laerm;60856;53.238;10.448;2023-05-10T12:53:10;46.59;45.26;50.11;;
72736;Laerm;60856;53.238;10.448;2023-05-10T12:55:35;46.61;45.24;49.96;;
72736;Laerm;60856;53.238;10.448;2023-05-10T12:58:00;46.62;45.39;50.31;;
72736;Laerm;60856;53.238;10.448;2023-05-10T13:00:25;46.62;45.29;49.95;;
72736;Laerm;60856;53.238;10.448;2023-05-10T13:02:51;46.62;45.28;50.36;;
72736;Laerm;60856;53.238;10.448;2023-05-10T13:05:16;46.62;45.26;50.13;;
72736;Laerm;60856;53.238;10.448;2023-05-10T13:07:41;46.61;45.29;50.33;;
72736;Laerm;60856;53.238;10.448;2023-05-10T13:10:08;46.61;45.25;50.15;;
72736;Laerm;60856;53.238;10.448;2023-05-10T13:12:34;46.63;45.21;49.45;;
72736;Laerm;60856;53.238;10.448;2023-05-10T13:14:59;46.60;45.26;49.63;;
72736;Laerm;60856;53.238;10.448;2023-05-10T13:17:25;46.61;45.33;49.89;;
72736;Laerm;60856;53.238;10.448;2023-05-10T13:19:50;46.61;45.38;49.82;;
72736;Laerm;60856;53.238;10.448;2023-05-10T13:22:15;46.62;45.34;49.75;;
72736;Laerm;60856;53.238;10.448;2023-05-10T13:24:41;46.62;45.29;49.56;;
72736;Laerm;60856;53.238;10.448;2023-05-10T13:27:06;46.63;45.04;50.31;;
72736;Laerm;60856;53.238;10.448;2023-05-10T13:29:31;46.63;44.94;50.34;;
72736;Laerm;60856;53.238;10.448;2023-05-10T13:32:04;46.61;45.33;49.95;;
72736;Laerm;60856;53.238;10.448;2023-05-10T13:34:30;46.61;45.22;49.51;;
72736;Laerm;60856;53.238;10.448;2023-05-10T13:36:55;46.61;45.30;49.75;;
72736;Laerm;60856;53.238;10.448;2023-05-10T13:39:21;46.62;45.40;49.67;;
72736;Laerm;60856;53.238;10.448;2023-05-10T13:41:46;46.60;45.14;49.72;;
72736;Laerm;60856;53.238;10.448;2023-05-10T13:44:12;46.62;45.26;50.18;;
72736;Laerm;60856;53.238;10.448;2023-05-10T13:46:38;46.61;45.27;49.43;;
72736;Laerm;60856;53.238;10.448;2023-05-10T13:49:04;46.59;45.10;49.74;;
72736;Laerm;60856;53.238;10.448;2023-05-10T13:51:29;46.60;45.31;50.40;;
72736;Laerm;60856;53.238;10.448;2023-05-10T13:53:54;46.60;45.26;50.03;;
72736;Laerm;60856;53.238;10.448;2023-05-10T13:56:19;46.62;45.40;49.91;;
72736;Laerm;60856;53.238;10.448;2023-05-10T13:58:44;46.60;45.21;49.90;;
72736;Laerm;60856;53.238;10.448;2023-05-10T14:01:10;46.62;45.33;49.65;;
72736;Laerm;60856;53.238;10.448;2023-05-10T14:03:36;46.61;45.19;50.11;;
72736;Laerm;60856;53.238;10.448;2023-05-10T14:06:02;46.61;44.99;49.90;;